Thunder radar more information blitzortung!


Radar de pluja more information rain snow radar


Visita la nostra xarxa de llocs de meteo:

Template documentation
and downloads

And another site



No particular awareness of the weather is required.    There are no Weather-warnings

Pagina Historial Weather Underground text

Diari Resum May 31, 2017 Unitats:  Tant    Imperial   Mètric
« Previous Dia
SegĂźent Dia »
Diari Setmana Mensual Anual Personalitzada
  Maxima: Minima: Media:
Temperatura: TemperatureC °F /  -17.8 °C 15.7 °F /  -9.1 °C 21.8 °F /  -5.7 °C
Punt de rosada: DewpointC °F /  -17.8 °C 8.6 °F /  -13 °C 10.2 °F /  -12.1 °C
Humitat: Humidity % 35 % 48 %
Wind Speed: WindSpeedKMH mph /  0 km/h - 6.1 mph /  9.8 km/h
RĂ fegues de vent: WindSpeedGustKMH mph /  0 km/h - -
Vent:- - SE
Pression baro: PressurehPa in /  0 hPa 1016.8 in /  34428.8 hPa -
Precipitacions: 0.0 in /  0 mm    
Historical Graphs
 
 
Dades de taula per May 31, 2017
Temps Temperatura Punt de rosada Pression baro Vent Wind Speed RĂ fegues de vent Humitat Rainfall Rate (Hourly)
TemperatureC °F /  -17.8 °C DewpointC °F /  -17.8 °C PressurehPa in /  0 hPa Calm     Humidity % HourlyPrecipMM in /  0 mm
00:04 17.8 °F /  -7.9 °C 9.2 °F /  -12.7 °C 1017.8 in /  34462.7 hPa Calm     57 % 0.0 in /  0 mm
00:05 15.7 °F /  -9.1 °C 9.1 °F /  -12.7 °C 1017.8 in /  34462.7 hPa Calm   3.2 mph /  5.1 km/h 65 % 0.0 in /  0 mm
00:15 15.7 °F /  -9.1 °C 9.1 °F /  -12.7 °C 1017.8 in /  34462.7 hPa West 1.6 mph /  2.6 km/h 3.2 mph /  5.1 km/h 65 % 0.0 in /  0 mm
00:25 15.9 °F /  -8.9 °C 9.3 °F /  -12.6 °C 1017.8 in /  34462.7 hPa WSW 3.2 mph /  5.1 km/h 4.8 mph /  7.7 km/h 65 % 0.0 in /  0 mm
00:35 15.9 °F /  -8.9 °C 9.3 °F /  -12.6 °C 1017.8 in /  34462.7 hPa WSW 1.6 mph /  2.6 km/h 3.2 mph /  5.1 km/h 65 % 0.0 in /  0 mm
00:45 15.9 °F /  -8.9 °C 9.3 °F /  -12.6 °C 1017.8 in /  34462.7 hPa Calm   4.8 mph /  7.7 km/h 65 % 0.0 in /  0 mm
00:55 15.8 °F /  -9 °C 9.2 °F /  -12.7 °C 1016.8 in /  34428.8 hPa West 1.6 mph /  2.6 km/h 3.2 mph /  5.1 km/h 65 % 0.0 in /  0 mm
01:05 15.9 °F /  -8.9 °C 9.3 °F /  -12.6 °C 1017.8 in /  34462.7 hPa WSW 1.6 mph /  2.6 km/h 4.8 mph /  7.7 km/h 65 % 0.0 in /  0 mm
01:15 15.8 °F /  -9 °C 9.2 °F /  -12.7 °C 1017.8 in /  34462.7 hPa SW 1.6 mph /  2.6 km/h 3.2 mph /  5.1 km/h 65 % 0.0 in /  0 mm
01:25 15.8 °F /  -9 °C 9.2 °F /  -12.7 °C 1017.8 in /  34462.7 hPa SW 1.6 mph /  2.6 km/h 3.2 mph /  5.1 km/h 65 % 0.0 in /  0 mm
01:35 15.8 °F /  -9 °C 9.2 °F /  -12.7 °C 1017.8 in /  34462.7 hPa Calm   3.2 mph /  5.1 km/h 65 % 0.0 in /  0 mm
01:45 15.8 °F /  -9 °C 9.2 °F /  -12.7 °C 1017.8 in /  34462.7 hPa Calm   1.6 mph /  2.6 km/h 65 % 0.0 in /  0 mm
01:55 16.0 °F /  -8.9 °C 9.7 °F /  -12.4 °C 1017.8 in /  34462.7 hPa Calm     66 % 0.0 in /  0 mm
02:05 16.2 °F /  -8.8 °C 9.8 °F /  -12.3 °C 1017.8 in /  34462.7 hPa Calm   3.2 mph /  5.1 km/h 66 % 0.0 in /  0 mm
02:15 16.2 °F /  -8.8 °C 9.8 °F /  -12.3 °C 1017.8 in /  34462.7 hPa North 1.6 mph /  2.6 km/h 3.2 mph /  5.1 km/h 66 % 0.0 in /  0 mm
02:25 16.0 °F /  -8.9 °C 9.7 °F /  -12.4 °C 1018.8 in /  34496.6 hPa Calm   3.2 mph /  5.1 km/h 66 % 0.0 in /  0 mm
02:35 16.1 °F /  -8.8 °C 9.7 °F /  -12.4 °C 1018.8 in /  34496.6 hPa WSW 1.6 mph /  2.6 km/h 3.2 mph /  5.1 km/h 66 % 0.0 in /  0 mm
02:45 16.2 °F /  -8.8 °C 9.8 °F /  -12.3 °C 1018.8 in /  34496.6 hPa WSW 1.6 mph /  2.6 km/h 1.6 mph /  2.6 km/h 66 % 0.0 in /  0 mm
02:55 16.3 °F /  -8.7 °C 9.9 °F /  -12.3 °C 1018.8 in /  34496.6 hPa Calm     66 % 0.0 in /  0 mm
03:05 16.4 °F /  -8.7 °C 9.8 °F /  -12.3 °C 1018.8 in /  34496.6 hPa Calm   1.6 mph /  2.6 km/h 65 % 0.0 in /  0 mm
03:15 16.7 °F /  -8.5 °C 10.3 °F /  -12.1 °C 1018.8 in /  34496.6 hPa Calm   1.6 mph /  2.6 km/h 66 % 0.0 in /  0 mm
03:25 17.1 °F /  -8.3 °C 10.4 °F /  -12 °C 1018.8 in /  34496.6 hPa Calm     65 % 0.0 in /  0 mm
03:35 17.7 °F /  -7.9 °C 10.8 °F /  -11.8 °C 1018.8 in /  34496.6 hPa North 1.6 mph /  2.6 km/h 3.2 mph /  5.1 km/h 64 % 0.0 in /  0 mm
03:45 18.4 °F /  -7.6 °C 11.2 °F /  -11.6 °C 1018.8 in /  34496.6 hPa NE 1.6 mph /  2.6 km/h 3.2 mph /  5.1 km/h 63 % 0.0 in /  0 mm
03:55 18.3 °F /  -7.6 °C 11.1 °F /  -11.6 °C 1018.8 in /  34496.6 hPa NE 4.8 mph /  7.7 km/h 6.4 mph /  10.3 km/h 63 % 0.0 in /  0 mm
04:05 18.8 °F /  -7.3 °C 11.6 °F /  -11.3 °C 1018.8 in /  34496.6 hPa NNE 1.6 mph /  2.6 km/h 4.8 mph /  7.7 km/h 63 % 0.0 in /  0 mm
04:15 19.4 °F /  -7 °C 11.4 °F /  -11.4 °C 1018.8 in /  34496.6 hPa NNE 3.2 mph /  5.1 km/h 3.2 mph /  5.1 km/h 60 % 0.0 in /  0 mm
04:25 19.5 °F /  -6.9 °C 11.5 °F /  -11.4 °C 1018.8 in /  34496.6 hPa ENE 1.6 mph /  2.6 km/h 4.8 mph /  7.7 km/h 60 % 0.0 in /  0 mm
04:35 19.7 °F /  -6.8 °C 11.4 °F /  -11.4 °C 1018.8 in /  34496.6 hPa ENE 3.2 mph /  5.1 km/h 6.4 mph /  10.3 km/h 59 % 0.0 in /  0 mm
04:45 19.9 °F /  -6.7 °C 11.7 °F /  -11.3 °C 1018.8 in /  34496.6 hPa NE 3.2 mph /  5.1 km/h 6.4 mph /  10.3 km/h 59 % 0.0 in /  0 mm
04:55 20.7 °F /  -6.3 °C 12.1 °F /  -11.1 °C 1018.8 in /  34496.6 hPa NE 1.6 mph /  2.6 km/h 4.8 mph /  7.7 km/h 58 % 0.0 in /  0 mm
05:05 20.4 °F /  -6.4 °C 11.8 °F /  -11.2 °C 1018.8 in /  34496.6 hPa NE 4.8 mph /  7.7 km/h 6.4 mph /  10.3 km/h 58 % 0.0 in /  0 mm
05:15 20.2 °F /  -6.6 °C 11.7 °F /  -11.3 °C 1018.8 in /  34496.6 hPa NE 1.6 mph /  2.6 km/h 11.3 mph /  18.2 km/h 58 % 0.0 in /  0 mm
05:25 20.3 °F /  -6.5 °C 11.8 °F /  -11.2 °C 1018.8 in /  34496.6 hPa NE 4.8 mph /  7.7 km/h 6.4 mph /  10.3 km/h 58 % 0.0 in /  0 mm
05:35 20.6 °F /  -6.3 °C 12.1 °F /  -11.1 °C 1019.9 in /  34533.8 hPa NE 3.2 mph /  5.1 km/h 9.7 mph /  15.6 km/h 58 % 0.0 in /  0 mm
05:40 20.7 °F /  -6.3 °C 11.9 °F /  -11.2 °C 1019.9 in /  34533.8 hPa NNE 4.8 mph /  7.7 km/h 4.8 mph /  7.7 km/h 57 % 0.0 in /  0 mm
10:42 20.8 °F /  -6.2 °C 11.9 °F /  -11.2 °C 1019.9 in /  34533.8 hPa NE 6.4 mph /  10.3 km/h 6.4 mph /  10.3 km/h 57 % 0.0 in /  0 mm
10:43 20.8 °F /  -6.2 °C 11.9 °F /  -11.2 °C 1019.9 in /  34533.8 hPa NE 7.4 mph /  11.9 km/h 7.4 mph /  11.9 km/h 57 % 0.0 in /  0 mm
10:48 21.1 °F /  -6.1 °C 12.2 °F /  -11 °C 1019.9 in /  34533.8 hPa NE 7.4 mph /  11.9 km/h 7.4 mph /  11.9 km/h 57 % 0.0 in /  0 mm
10:53 21.2 °F /  -6 °C 12.1 °F /  -11.1 °C 1018.8 in /  34496.6 hPa North 9.3 mph /  15 km/h 9.3 mph /  15 km/h 56 % 0.0 in /  0 mm
10:58 21.4 °F /  -5.9 °C 12.3 °F /  -10.9 °C 1018.8 in /  34496.6 hPa NNE 7.4 mph /  11.9 km/h 7.4 mph /  11.9 km/h 56 % 0.0 in /  0 mm
11:03 21.7 °F /  -5.7 °C 12.3 °F /  -10.9 °C 1018.8 in /  34496.6 hPa North 5.6 mph /  9 km/h 5.6 mph /  9 km/h 55 % 0.0 in /  0 mm
11:08 22.2 °F /  -5.4 °C 12.4 °F /  -10.9 °C 1018.8 in /  34496.6 hPa ENE 3.7 mph /  6 km/h 3.7 mph /  6 km/h 54 % 0.0 in /  0 mm
11:13 22.3 °F /  -5.4 °C 11.9 °F /  -11.2 °C 1018.8 in /  34496.6 hPa ENE 5.6 mph /  9 km/h 5.6 mph /  9 km/h 52 % 0.0 in /  0 mm
11:18 22.7 °F /  -5.2 °C 12.1 °F /  -11.1 °C 1018.8 in /  34496.6 hPa ENE 5.6 mph /  9 km/h 5.6 mph /  9 km/h 51 % 0.0 in /  0 mm
11:23 22.7 °F /  -5.2 °C 11.7 °F /  -11.3 °C 1018.8 in /  34496.6 hPa ESE 3.9 mph /  6.3 km/h 3.9 mph /  6.3 km/h 50 % 0.0 in /  0 mm
11:28 23.4 °F /  -4.8 °C 11.8 °F /  -11.2 °C 1018.8 in /  34496.6 hPa SE 3.7 mph /  6 km/h 3.7 mph /  6 km/h 48 % 0.0 in /  0 mm
11:33 23.6 °F /  -4.7 °C 11.9 °F /  -11.2 °C 1018.8 in /  34496.6 hPa NNE 7.4 mph /  11.9 km/h 7.4 mph /  11.9 km/h 48 % 0.0 in /  0 mm
11:38 23.6 °F /  -4.7 °C 11.9 °F /  -11.2 °C 1018.8 in /  34496.6 hPa ENE 7.9 mph /  12.7 km/h 7.9 mph /  12.7 km/h 48 % 0.0 in /  0 mm
11:43 24.0 °F /  -4.4 °C 12.3 °F /  -10.9 °C 1018.8 in /  34496.6 hPa North 7.4 mph /  11.9 km/h 7.4 mph /  11.9 km/h 48 % 0.0 in /  0 mm
11:48 23.9 °F /  -4.5 °C 11.9 °F /  -11.2 °C 1018.8 in /  34496.6 hPa NE 9.3 mph /  15 km/h 9.3 mph /  15 km/h 47 % 0.0 in /  0 mm
11:53 23.7 °F /  -4.6 °C 11.7 °F /  -11.3 °C 1018.8 in /  34496.6 hPa ENE 6.4 mph /  10.3 km/h 6.4 mph /  10.3 km/h 47 % 0.0 in /  0 mm
11:58 23.8 °F /  -4.6 °C 11.8 °F /  -11.2 °C 1018.8 in /  34496.6 hPa NE 9.3 mph /  15 km/h 9.3 mph /  15 km/h 47 % 0.0 in /  0 mm
12:03 23.7 °F /  -4.6 °C 11.4 °F /  -11.4 °C 1018.8 in /  34496.6 hPa NNE 7.4 mph /  11.9 km/h 7.4 mph /  11.9 km/h 46 % 0.0 in /  0 mm
12:08 24.1 °F /  -4.4 °C 11.8 °F /  -11.2 °C 1018.8 in /  34496.6 hPa ENE 7.4 mph /  11.9 km/h 7.4 mph /  11.9 km/h 46 % 0.0 in /  0 mm
12:13 23.9 °F /  -4.5 °C 11.6 °F /  -11.3 °C 1018.8 in /  34496.6 hPa ENE 7.4 mph /  11.9 km/h 7.4 mph /  11.9 km/h 46 % 0.0 in /  0 mm
12:18 24.4 °F /  -4.2 °C 12.0 °F /  -11.1 °C 1018.8 in /  34496.6 hPa ESE 5.6 mph /  9 km/h 5.6 mph /  9 km/h 46 % 0.0 in /  0 mm
12:23 24.5 °F /  -4.2 °C 11.8 °F /  -11.2 °C 1018.8 in /  34496.6 hPa SSE 5.6 mph /  9 km/h 5.6 mph /  9 km/h 45 % 0.0 in /  0 mm
12:28 24.7 °F /  -4.1 °C 11.9 °F /  -11.2 °C 1018.8 in /  34496.6 hPa NE 6.9 mph /  11.1 km/h 6.9 mph /  11.1 km/h 45 % 0.0 in /  0 mm
12:33 24.6 °F /  -4.1 °C 11.9 °F /  -11.2 °C 1018.8 in /  34496.6 hPa NE 7.4 mph /  11.9 km/h 7.4 mph /  11.9 km/h 45 % 0.0 in /  0 mm
12:38 24.5 °F /  -4.2 °C 11.4 °F /  -11.4 °C 1018.8 in /  34496.6 hPa NW 7.4 mph /  11.9 km/h 7.4 mph /  11.9 km/h 44 % 0.0 in /  0 mm
12:43 25.1 °F /  -3.8 °C 12.0 °F /  -11.1 °C 1018.8 in /  34496.6 hPa SW 3.7 mph /  6 km/h 3.7 mph /  6 km/h 44 % 0.0 in /  0 mm
12:48 25.6 °F /  -3.6 °C 12.4 °F /  -10.9 °C 1018.8 in /  34496.6 hPa ENE 3.7 mph /  6 km/h 3.7 mph /  6 km/h 44 % 0.0 in /  0 mm
12:53 25.6 °F /  -3.6 °C 11.7 °F /  -11.3 °C 1018.8 in /  34496.6 hPa SSE 5.6 mph /  9 km/h 5.6 mph /  9 km/h 42 % 0.0 in /  0 mm
12:58 25.7 °F /  -3.5 °C 11.8 °F /  -11.2 °C 1018.8 in /  34496.6 hPa ENE 3.7 mph /  6 km/h 3.7 mph /  6 km/h 42 % 0.0 in /  0 mm
13:03 26.0 °F /  -3.3 °C 12.4 °F /  -10.9 °C 1018.8 in /  34496.6 hPa East 1.9 mph /  3.1 km/h 1.9 mph /  3.1 km/h 43 % 0.0 in /  0 mm
13:08 25.9 °F /  -3.4 °C 12.0 °F /  -11.1 °C 1017.8 in /  34462.7 hPa East 3.7 mph /  6 km/h 4.2 mph /  6.8 km/h 42 % 0.0 in /  0 mm
13:13 25.9 °F /  -3.4 °C 12.0 °F /  -11.1 °C 1017.8 in /  34462.7 hPa NE 7.4 mph /  11.9 km/h 7.4 mph /  11.9 km/h 42 % 0.0 in /  0 mm
13:18 25.9 °F /  -3.4 °C 11.6 °F /  -11.3 °C 1017.8 in /  34462.7 hPa NE 7.4 mph /  11.9 km/h 7.4 mph /  11.9 km/h 41 % 0.0 in /  0 mm
13:23 25.8 °F /  -3.4 °C 11.6 °F /  -11.3 °C 1017.8 in /  34462.7 hPa East 5.0 mph /  8 km/h 5.0 mph /  8 km/h 41 % 0.0 in /  0 mm
13:28 26.0 °F /  -3.3 °C 11.7 °F /  -11.3 °C 1017.8 in /  34462.7 hPa NE 4.7 mph /  7.6 km/h 4.7 mph /  7.6 km/h 41 % 0.0 in /  0 mm
13:33 26.2 °F /  -3.2 °C 11.6 °F /  -11.3 °C 1017.8 in /  34462.7 hPa NNW 9.3 mph /  15 km/h 9.3 mph /  15 km/h 40 % 0.0 in /  0 mm
13:38 25.8 °F /  -3.4 °C 10.8 °F /  -11.8 °C 1017.8 in /  34462.7 hPa NE 13.0 mph /  20.9 km/h 13.0 mph /  20.9 km/h 39 % 0.0 in /  0 mm
13:43 26.3 °F /  -3.2 °C 11.6 °F /  -11.3 °C 1017.8 in /  34462.7 hPa West 9.5 mph /  15.3 km/h 9.5 mph /  15.3 km/h 40 % 0.0 in /  0 mm
13:48 26.0 °F /  -3.3 °C 10.9 °F /  -11.7 °C 1017.8 in /  34462.7 hPa SW 9.3 mph /  15 km/h 9.3 mph /  15 km/h 39 % 0.0 in /  0 mm
13:53 26.3 °F /  -3.2 °C 11.2 °F /  -11.6 °C 1017.8 in /  34462.7 hPa ENE 8.7 mph /  14 km/h 8.7 mph /  14 km/h 39 % 0.0 in /  0 mm
13:56 26.1 °F /  -3.3 °C 11.1 °F /  -11.6 °C 1017.8 in /  34462.7 hPa NE 7.4 mph /  11.9 km/h 7.4 mph /  11.9 km/h 39 % 0.0 in /  0 mm
14:01 26.0 °F /  -3.3 °C 10.6 °F /  -11.9 °C 1017.8 in /  34462.7 hPa SSE 9.7 mph /  15.6 km/h 9.7 mph /  15.6 km/h 38 % 0.0 in /  0 mm
14:06 25.9 °F /  -3.4 °C 10.9 °F /  -11.7 °C 1017.8 in /  34462.7 hPa SW 5.8 mph /  9.3 km/h 5.8 mph /  9.3 km/h 39 % 0.0 in /  0 mm
14:11 26.2 °F /  -3.2 °C 10.3 °F /  -12.1 °C 1017.8 in /  34462.7 hPa ESE 11.1 mph /  17.9 km/h 11.1 mph /  17.9 km/h 37 % 0.0 in /  0 mm
14:16 25.9 °F /  -3.4 °C 10.1 °F /  -12.2 °C 1017.8 in /  34462.7 hPa ESE 7.4 mph /  11.9 km/h 7.4 mph /  11.9 km/h 37 % 0.0 in /  0 mm
14:21 26.1 °F /  -3.3 °C 10.3 °F /  -12.1 °C 1016.8 in /  34428.8 hPa ESE 11.1 mph /  17.9 km/h 11.1 mph /  17.9 km/h 37 % 0.0 in /  0 mm
14:26 26.3 °F /  -3.2 °C 10.8 °F /  -11.8 °C 1016.8 in /  34428.8 hPa ESE 7.4 mph /  11.9 km/h 7.4 mph /  11.9 km/h 38 % 0.0 in /  0 mm
14:31 26.3 °F /  -3.2 °C 10.8 °F /  -11.8 °C 1016.8 in /  34428.8 hPa WNW 4.2 mph /  6.8 km/h 4.2 mph /  6.8 km/h 38 % 0.0 in /  0 mm
14:36 26.7 °F /  -2.9 °C 10.8 °F /  -11.8 °C 1016.8 in /  34428.8 hPa East 9.3 mph /  15 km/h 9.3 mph /  15 km/h 37 % 0.0 in /  0 mm
14:41 27.0 °F /  -2.8 °C 11.1 °F /  -11.6 °C 1016.8 in /  34428.8 hPa WSW 3.2 mph /  5.1 km/h 3.2 mph /  5.1 km/h 37 % 0.0 in /  0 mm
14:46 27.2 °F /  -2.7 °C 11.2 °F /  -11.6 °C 1016.8 in /  34428.8 hPa NNE 9.3 mph /  15 km/h 9.3 mph /  15 km/h 37 % 0.0 in /  0 mm
14:51 26.9 °F /  -2.8 °C 11.0 °F /  -11.7 °C 1017.8 in /  34462.7 hPa East 4.7 mph /  7.6 km/h 4.7 mph /  7.6 km/h 37 % 0.0 in /  0 mm
14:56 27.4 °F /  -2.6 °C 11.4 °F /  -11.4 °C 1017.8 in /  34462.7 hPa SSE 9.5 mph /  15.3 km/h 9.5 mph /  15.3 km/h 37 % 0.0 in /  0 mm
15:01 27.5 °F /  -2.5 °C 11.5 °F /  -11.4 °C 1017.8 in /  34462.7 hPa SSW 7.4 mph /  11.9 km/h 7.4 mph /  11.9 km/h 37 % 0.0 in /  0 mm
15:06 27.6 °F /  -2.4 °C 11.6 °F /  -11.3 °C 1017.8 in /  34462.7 hPa SSW 7.4 mph /  11.9 km/h 7.4 mph /  11.9 km/h 37 % 0.0 in /  0 mm
15:11 28.4 °F /  -2 °C 12.3 °F /  -10.9 °C 1017.8 in /  34462.7 hPa SW 5.8 mph /  9.3 km/h 5.8 mph /  9.3 km/h 37 % 0.0 in /  0 mm
15:16 28.3 °F /  -2.1 °C 11.8 °F /  -11.2 °C 1017.8 in /  34462.7 hPa East 9.3 mph /  15 km/h 9.3 mph /  15 km/h 36 % 0.0 in /  0 mm
15:21 27.7 °F /  -2.4 °C 11.3 °F /  -11.5 °C 1017.8 in /  34462.7 hPa ENE 9.3 mph /  15 km/h 9.3 mph /  15 km/h 36 % 0.0 in /  0 mm
15:26 27.1 °F /  -2.7 °C 10.7 °F /  -11.8 °C 1017.8 in /  34462.7 hPa SSE 11.1 mph /  17.9 km/h 13.0 mph /  20.9 km/h 36 % 0.0 in /  0 mm
15:31 27.2 °F /  -2.7 °C 10.8 °F /  -11.8 °C 1017.8 in /  34462.7 hPa East 7.4 mph /  11.9 km/h 7.4 mph /  11.9 km/h 36 % 0.0 in /  0 mm
15:36 26.8 °F /  -2.9 °C 11.3 °F /  -11.5 °C 1017.8 in /  34462.7 hPa SW 7.4 mph /  11.9 km/h 7.4 mph /  11.9 km/h 38 % 0.0 in /  0 mm
15:41 26.9 °F /  -2.8 °C 11.0 °F /  -11.7 °C 1017.8 in /  34462.7 hPa SE 20.4 mph /  32.8 km/h 20.4 mph /  32.8 km/h 37 % 0.0 in /  0 mm
15:46 26.6 °F /  -3 °C 10.7 °F /  -11.8 °C 1017.8 in /  34462.7 hPa ESE 13.0 mph /  20.9 km/h 13.0 mph /  20.9 km/h 37 % 0.0 in /  0 mm
15:51 26.4 °F /  -3.1 °C 10.6 °F /  -11.9 °C 1016.8 in /  34428.8 hPa SSW 11.1 mph /  17.9 km/h 11.1 mph /  17.9 km/h 37 % 0.0 in /  0 mm
15:56 26.4 °F /  -3.1 °C 10.6 °F /  -11.9 °C 1016.8 in /  34428.8 hPa ENE 11.1 mph /  17.9 km/h 11.1 mph /  17.9 km/h 37 % 0.0 in /  0 mm
16:01 26.7 °F /  -2.9 °C 10.8 °F /  -11.8 °C 1016.8 in /  34428.8 hPa SSE 7.4 mph /  11.9 km/h 7.4 mph /  11.9 km/h 37 % 0.0 in /  0 mm
16:06 26.8 °F /  -2.9 °C 10.9 °F /  -11.7 °C 1017.8 in /  34462.7 hPa SE 14.8 mph /  23.8 km/h 14.8 mph /  23.8 km/h 37 % 0.0 in /  0 mm
16:11 27.5 °F /  -2.5 °C 11.5 °F /  -11.4 °C 1017.8 in /  34462.7 hPa South 8.7 mph /  14 km/h 8.7 mph /  14 km/h 37 % 0.0 in /  0 mm
16:16 27.9 °F /  -2.3 °C 11.9 °F /  -11.2 °C 1017.8 in /  34462.7 hPa SSW 9.3 mph /  15 km/h 9.3 mph /  15 km/h 37 % 0.0 in /  0 mm
16:21 28.4 °F /  -2 °C 11.9 °F /  -11.2 °C 1017.8 in /  34462.7 hPa South 9.3 mph /  15 km/h 9.3 mph /  15 km/h 36 % 0.0 in /  0 mm
16:26 26.9 °F /  -2.8 °C 11.0 °F /  -11.7 °C 1017.8 in /  34462.7 hPa NE 9.3 mph /  15 km/h 9.3 mph /  15 km/h 37 % 0.0 in /  0 mm
16:31 26.9 °F /  -2.8 °C 10.6 °F /  -11.9 °C 1017.8 in /  34462.7 hPa SSE 9.7 mph /  15.6 km/h 9.7 mph /  15.6 km/h 36 % 0.0 in /  0 mm
16:36 26.8 °F /  -2.9 °C 10.9 °F /  -11.7 °C 1017.8 in /  34462.7 hPa ESE 7.9 mph /  12.7 km/h 7.9 mph /  12.7 km/h 37 % 0.0 in /  0 mm
16:41 26.5 °F /  -3.1 °C 10.2 °F /  -12.1 °C 1017.8 in /  34462.7 hPa ENE 19.5 mph /  31.4 km/h 19.5 mph /  31.4 km/h 36 % 0.0 in /  0 mm
16:46 26.3 °F /  -3.2 °C 10.1 °F /  -12.2 °C 1017.8 in /  34462.7 hPa SE 11.1 mph /  17.9 km/h 11.1 mph /  17.9 km/h 36 % 0.0 in /  0 mm
16:51 25.9 °F /  -3.4 °C 9.7 °F /  -12.4 °C 1017.8 in /  34462.7 hPa East 13.0 mph /  20.9 km/h 13.0 mph /  20.9 km/h 36 % 0.0 in /  0 mm
16:56 25.8 °F /  -3.4 °C 9.6 °F /  -12.4 °C 1017.8 in /  34462.7 hPa ESE 13.0 mph /  20.9 km/h 13.0 mph /  20.9 km/h 36 % 0.0 in /  0 mm
17:01 25.4 °F /  -3.7 °C 8.8 °F /  -12.9 °C 1017.8 in /  34462.7 hPa East 14.8 mph /  23.8 km/h 14.8 mph /  23.8 km/h 35 % 0.0 in /  0 mm
17:06 25.3 °F /  -3.7 °C 8.7 °F /  -12.9 °C 1016.8 in /  34428.8 hPa East 13.0 mph /  20.9 km/h 13.0 mph /  20.9 km/h 35 % 0.0 in /  0 mm
17:11 25.6 °F /  -3.6 °C 9.0 °F /  -12.8 °C 1016.8 in /  34428.8 hPa ESE 14.8 mph /  23.8 km/h 14.8 mph /  23.8 km/h 35 % 0.0 in /  0 mm
17:16 25.6 °F /  -3.6 °C 9.0 °F /  -12.8 °C 1016.8 in /  34428.8 hPa ENE 13.0 mph /  20.9 km/h 13.0 mph /  20.9 km/h 35 % 0.0 in /  0 mm
17:21 25.4 °F /  -3.7 °C 8.8 °F /  -12.9 °C 1017.8 in /  34462.7 hPa East 16.7 mph /  26.9 km/h 16.7 mph /  26.9 km/h 35 % 0.0 in /  0 mm
17:26 25.1 °F /  -3.8 °C 8.6 °F /  -13 °C 1017.8 in /  34462.7 hPa ESE 16.7 mph /  26.9 km/h 16.7 mph /  26.9 km/h 35 % 0.0 in /  0 mm
17:31 24.9 °F /  -3.9 °C 8.8 °F /  -12.9 °C 1017.8 in /  34462.7 hPa East 16.7 mph /  26.9 km/h 16.7 mph /  26.9 km/h 36 % 0.0 in /  0 mm
17:36 24.9 °F /  -3.9 °C 8.8 °F /  -12.9 °C 1017.8 in /  34462.7 hPa ESE 18.5 mph /  29.8 km/h 18.5 mph /  29.8 km/h 36 % 0.0 in /  0 mm
17:37 24.9 °F /  -3.9 °C 9.2 °F /  -12.7 °C 1017.8 in /  34462.7 hPa ESE 14.8 mph /  23.8 km/h 14.8 mph /  23.8 km/h 37 % 0.0 in /  0 mm
17:42 24.7 °F /  -4.1 °C 9.0 °F /  -12.8 °C 1017.8 in /  34462.7 hPa ENE 14.8 mph /  23.8 km/h 14.8 mph /  23.8 km/h 37 % 0.0 in /  0 mm
17:47 24.5 °F /  -4.2 °C 8.8 °F /  -12.9 °C 1017.8 in /  34462.7 hPa SSE 18.5 mph /  29.8 km/h 18.5 mph /  29.8 km/h 37 % 0.0 in /  0 mm
17:52 24.7 °F /  -4.1 °C 9.0 °F /  -12.8 °C 1016.8 in /  34428.8 hPa SE 17.2 mph /  27.7 km/h 17.2 mph /  27.7 km/h 37 % 0.0 in /  0 mm
17:57 24.5 °F /  -4.2 °C 8.8 °F /  -12.9 °C 1016.8 in /  34428.8 hPa SE 13.0 mph /  20.9 km/h 13.0 mph /  20.9 km/h 37 % 0.0 in /  0 mm
18:02 24.5 °F /  -4.2 °C 8.8 °F /  -12.9 °C 1016.8 in /  34428.8 hPa ESE 14.0 mph /  22.5 km/h 14.0 mph /  22.5 km/h 37 % 0.0 in /  0 mm
18:07 24.3 °F /  -4.3 °C 8.7 °F /  -12.9 °C 1017.8 in /  34462.7 hPa ESE 16.7 mph /  26.9 km/h 16.7 mph /  26.9 km/h 37 % 0.0 in /  0 mm
18:12 24.1 °F /  -4.4 °C 8.9 °F /  -12.8 °C 1017.8 in /  34462.7 hPa ESE 15.1 mph /  24.3 km/h 15.1 mph /  24.3 km/h 38 % 0.0 in /  0 mm
18:17 24.2 °F /  -4.3 °C 8.6 °F /  -13 °C 1017.8 in /  34462.7 hPa South 16.9 mph /  27.2 km/h 16.9 mph /  27.2 km/h 37 % 0.0 in /  0 mm
18:22 24.2 °F /  -4.3 °C 8.6 °F /  -13 °C 1016.8 in /  34428.8 hPa SE 16.7 mph /  26.9 km/h 16.7 mph /  26.9 km/h 37 % 0.0 in /  0 mm
18:27 24.1 °F /  -4.4 °C 8.9 °F /  -12.8 °C 1016.8 in /  34428.8 hPa East 13.0 mph /  20.9 km/h 13.0 mph /  20.9 km/h 38 % 0.0 in /  0 mm
18:32 24.0 °F /  -4.4 °C 8.8 °F /  -12.9 °C 1016.8 in /  34428.8 hPa ESE 14.0 mph /  22.5 km/h 14.0 mph /  22.5 km/h 38 % 0.0 in /  0 mm
18:37 24.2 °F /  -4.3 °C 9.0 °F /  -12.8 °C 1016.8 in /  34428.8 hPa ESE 20.6 mph /  33.2 km/h 20.6 mph /  33.2 km/h 38 % 0.0 in /  0 mm
18:42 24.0 °F /  -4.4 °C 8.8 °F /  -12.9 °C 1016.8 in /  34428.8 hPa ESE 16.7 mph /  26.9 km/h 16.7 mph /  26.9 km/h 38 % 0.0 in /  0 mm
18:47 24.0 °F /  -4.4 °C 8.8 °F /  -12.9 °C 1016.8 in /  34428.8 hPa ESE 13.0 mph /  20.9 km/h 13.0 mph /  20.9 km/h 38 % 0.0 in /  0 mm
18:52 24.2 °F /  -4.3 °C 9.0 °F /  -12.8 °C 1016.8 in /  34428.8 hPa ESE 13.0 mph /  20.9 km/h 13.0 mph /  20.9 km/h 38 % 0.0 in /  0 mm
18:57 23.9 °F /  -4.5 °C 9.1 °F /  -12.7 °C 1016.8 in /  34428.8 hPa SSE 14.0 mph /  22.5 km/h 14.0 mph /  22.5 km/h 39 % 0.0 in /  0 mm
19:02 23.8 °F /  -4.6 °C 9.0 °F /  -12.8 °C 1016.8 in /  34428.8 hPa East 13.0 mph /  20.9 km/h 13.0 mph /  20.9 km/h 39 % 0.0 in /  0 mm
19:07 23.9 °F /  -4.5 °C 9.1 °F /  -12.7 °C 1016.8 in /  34428.8 hPa East 11.1 mph /  17.9 km/h 11.1 mph /  17.9 km/h 39 % 0.0 in /  0 mm
19:12 23.8 °F /  -4.6 °C 9.0 °F /  -12.8 °C 1016.8 in /  34428.8 hPa SE 14.8 mph /  23.8 km/h 14.8 mph /  23.8 km/h 39 % 0.0 in /  0 mm
19:15 18.8 °F /  -7.3 °C 10.1 °F /  -12.2 °C 1019.9 in /  34533.8 hPa Calm   1.6 mph /  2.6 km/h 57 % 0.0 in /  0 mm
19:17 23.8 °F /  -4.6 °C 9.0 °F /  -12.8 °C 1016.8 in /  34428.8 hPa ESE 11.1 mph /  17.9 km/h 11.1 mph /  17.9 km/h 39 % 0.0 in /  0 mm
19:22 23.7 °F /  -4.6 °C 8.9 °F /  -12.8 °C 1016.8 in /  34428.8 hPa SSE 9.5 mph /  15.3 km/h 9.5 mph /  15.3 km/h 39 % 0.0 in /  0 mm
19:25 18.7 °F /  -7.4 °C 10.0 °F /  -12.2 °C 1018.8 in /  34496.6 hPa Calm   1.6 mph /  2.6 km/h 57 % 0.0 in /  0 mm
19:27 23.6 °F /  -4.7 °C 8.8 °F /  -12.9 °C 1016.8 in /  34428.8 hPa East 9.5 mph /  15.3 km/h 9.5 mph /  15.3 km/h 39 % 0.0 in /  0 mm
19:32 23.6 °F /  -4.7 °C 8.8 °F /  -12.9 °C 1016.8 in /  34428.8 hPa SSE 15.8 mph /  25.4 km/h 15.8 mph /  25.4 km/h 39 % 0.0 in /  0 mm
19:35 18.4 °F /  -7.6 °C 9.7 °F /  -12.4 °C 1018.8 in /  34496.6 hPa Calm     57 % 0.0 in /  0 mm
19:37 23.3 °F /  -4.8 °C 8.6 °F /  -13 °C 1016.8 in /  34428.8 hPa ESE 9.3 mph /  15 km/h 9.3 mph /  15 km/h 39 % 0.0 in /  0 mm
19:42 23.2 °F /  -4.9 °C 8.8 °F /  -12.9 °C 1016.8 in /  34428.8 hPa ESE 11.1 mph /  17.9 km/h 11.1 mph /  17.9 km/h 40 % 0.0 in /  0 mm
19:45 18.0 °F /  -7.8 °C 9.3 °F /  -12.6 °C 1018.8 in /  34496.6 hPa WNW 1.6 mph /  2.6 km/h 3.2 mph /  5.1 km/h 57 % 0.0 in /  0 mm
19:46 23.2 °F /  -4.9 °C 8.8 °F /  -12.9 °C 1016.8 in /  34428.8 hPa East 11.1 mph /  17.9 km/h 11.1 mph /  17.9 km/h 40 % 0.0 in /  0 mm
19:51 23.3 °F /  -4.8 °C 8.9 °F /  -12.8 °C 1017.8 in /  34462.7 hPa SSW 5.6 mph /  9 km/h 5.6 mph /  9 km/h 40 % 0.0 in /  0 mm
19:55 17.8 °F /  -7.9 °C 9.4 °F /  -12.6 °C 1018.8 in /  34496.6 hPa Calm   1.6 mph /  2.6 km/h 58 % 0.0 in /  0 mm
19:56 23.3 °F /  -4.8 °C 9.3 °F /  -12.6 °C 1017.8 in /  34462.7 hPa ESE 9.7 mph /  15.6 km/h 9.7 mph /  15.6 km/h 41 % 0.0 in /  0 mm
20:01 23.1 °F /  -4.9 °C 9.1 °F /  -12.7 °C 1017.8 in /  34462.7 hPa ESE 7.4 mph /  11.9 km/h 7.4 mph /  11.9 km/h 41 % 0.0 in /  0 mm
20:05 17.5 °F /  -8.1 °C 9.2 °F /  -12.7 °C 1018.8 in /  34496.6 hPa WSW 3.2 mph /  5.1 km/h 3.2 mph /  5.1 km/h 58 % 0.0 in /  0 mm
20:06 23.1 °F /  -4.9 °C 9.1 °F /  -12.7 °C 1017.8 in /  34462.7 hPa SSE 4.7 mph /  7.6 km/h 4.7 mph /  7.6 km/h 41 % 0.0 in /  0 mm
20:11 22.9 °F /  -5.1 °C 9.3 °F /  -12.6 °C 1017.8 in /  34462.7 hPa ESE 7.4 mph /  11.9 km/h 7.4 mph /  11.9 km/h 42 % 0.0 in /  0 mm
20:15 17.3 °F /  -8.2 °C 8.9 °F /  -12.8 °C 1018.8 in /  34496.6 hPa SW 3.2 mph /  5.1 km/h 4.8 mph /  7.7 km/h 58 % 0.0 in /  0 mm
20:16 22.9 °F /  -5.1 °C 9.3 °F /  -12.6 °C 1017.8 in /  34462.7 hPa SSW 3.7 mph /  6 km/h 3.7 mph /  6 km/h 42 % 0.0 in /  0 mm
20:21 22.8 °F /  -5.1 °C 9.2 °F /  -12.7 °C 1017.8 in /  34462.7 hPa East 9.3 mph /  15 km/h 9.3 mph /  15 km/h 42 % 0.0 in /  0 mm
20:25 17.1 °F /  -8.3 °C 9.0 °F /  -12.8 °C 1018.8 in /  34496.6 hPa Calm   3.2 mph /  5.1 km/h 59 % 0.0 in /  0 mm
20:26 22.6 °F /  -5.2 °C 9.4 °F /  -12.6 °C 1017.8 in /  34462.7 hPa ESE 9.3 mph /  15 km/h 9.3 mph /  15 km/h 43 % 0.0 in /  0 mm
20:31 22.6 °F /  -5.2 °C 9.7 °F /  -12.4 °C 1017.8 in /  34462.7 hPa ESE 5.6 mph /  9 km/h 5.6 mph /  9 km/h 44 % 0.0 in /  0 mm
20:35 16.9 °F /  -8.4 °C 9.3 °F /  -12.6 °C 1018.8 in /  34496.6 hPa Calm   3.2 mph /  5.1 km/h 61 % 0.0 in /  0 mm
20:36 22.4 °F /  -5.3 °C 9.6 °F /  -12.4 °C 1017.8 in /  34462.7 hPa ESE 7.4 mph /  11.9 km/h 7.4 mph /  11.9 km/h 44 % 0.0 in /  0 mm
20:41 22.2 °F /  -5.4 °C 9.7 °F /  -12.4 °C 1017.8 in /  34462.7 hPa ESE 9.3 mph /  15 km/h 9.3 mph /  15 km/h 45 % 0.0 in /  0 mm
20:45 16.8 °F /  -8.4 °C 9.2 °F /  -12.7 °C 1018.8 in /  34496.6 hPa Calm     61 % 0.0 in /  0 mm
20:46 22.1 °F /  -5.5 °C 9.9 °F /  -12.3 °C 1017.8 in /  34462.7 hPa East 5.8 mph /  9.3 km/h 5.8 mph /  9.3 km/h 46 % 0.0 in /  0 mm
20:51 21.9 °F /  -5.6 °C 9.8 °F /  -12.3 °C 1017.8 in /  34462.7 hPa SE 7.4 mph /  11.9 km/h 7.4 mph /  11.9 km/h 46 % 0.0 in /  0 mm
20:55 16.8 °F /  -8.4 °C 9.5 °F /  -12.5 °C 1018.8 in /  34496.6 hPa Calm   1.6 mph /  2.6 km/h 62 % 0.0 in /  0 mm
20:56 21.8 °F /  -5.7 °C 10.0 °F /  -12.2 °C 1017.8 in /  34462.7 hPa ESE 9.3 mph /  15 km/h 9.3 mph /  15 km/h 47 % 0.0 in /  0 mm
21:01 21.7 °F /  -5.7 °C 9.9 °F /  -12.3 °C 1017.8 in /  34462.7 hPa ESE 5.6 mph /  9 km/h 5.6 mph /  9 km/h 47 % 0.0 in /  0 mm
21:05 16.8 °F /  -8.4 °C 9.5 °F /  -12.5 °C 1018.8 in /  34496.6 hPa Calm   1.6 mph /  2.6 km/h 62 % 0.0 in /  0 mm
21:06 21.5 °F /  -5.8 °C 10.0 °F /  -12.2 °C 1016.8 in /  34428.8 hPa ESE 7.4 mph /  11.9 km/h 7.4 mph /  11.9 km/h 48 % 0.0 in /  0 mm
21:11 21.4 °F /  -5.9 °C 9.9 °F /  -12.3 °C 1016.8 in /  34428.8 hPa ENE 3.7 mph /  6 km/h 3.7 mph /  6 km/h 48 % 0.0 in /  0 mm
21:15 16.7 °F /  -8.5 °C 9.4 °F /  -12.6 °C 1018.8 in /  34496.6 hPa Calm   3.2 mph /  5.1 km/h 62 % 0.0 in /  0 mm
21:16 21.3 °F /  -5.9 °C 9.8 °F /  -12.3 °C 1016.8 in /  34428.8 hPa East 7.4 mph /  11.9 km/h 7.4 mph /  11.9 km/h 48 % 0.0 in /  0 mm
21:21 21.1 °F /  -6.1 °C 9.7 °F /  -12.4 °C 1017.8 in /  34462.7 hPa SSW 7.4 mph /  11.9 km/h 7.4 mph /  11.9 km/h 48 % 0.0 in /  0 mm
21:25 16.7 °F /  -8.5 °C 9.1 °F /  -12.7 °C 1018.8 in /  34496.6 hPa NE 1.6 mph /  2.6 km/h   61 % 0.0 in /  0 mm
21:26 21.1 °F /  -6.1 °C 9.7 °F /  -12.4 °C 1017.8 in /  34462.7 hPa ESE 3.2 mph /  5.1 km/h 3.2 mph /  5.1 km/h 48 % 0.0 in /  0 mm
21:31 21.0 °F /  -6.1 °C 9.9 °F /  -12.3 °C 1017.8 in /  34462.7 hPa NE 5.6 mph /  9 km/h 5.6 mph /  9 km/h 49 % 0.0 in /  0 mm
21:35 16.8 °F /  -8.4 °C 9.2 °F /  -12.7 °C 1018.8 in /  34496.6 hPa Calm     61 % 0.0 in /  0 mm
21:36 20.9 °F /  -6.2 °C 10.1 °F /  -12.2 °C 1017.8 in /  34462.7 hPa ESE 5.6 mph /  9 km/h 5.6 mph /  9 km/h 50 % 0.0 in /  0 mm
21:41 20.8 °F /  -6.2 °C 10.3 °F /  -12.1 °C 1017.8 in /  34462.7 hPa ESE 5.6 mph /  9 km/h 5.6 mph /  9 km/h 51 % 0.0 in /  0 mm
21:45 17.0 °F /  -8.3 °C 9.2 °F /  -12.7 °C 1018.8 in /  34496.6 hPa Calm     60 % 0.0 in /  0 mm
21:46 20.7 °F /  -6.3 °C 10.2 °F /  -12.1 °C 1017.8 in /  34462.7 hPa East 1.9 mph /  3.1 km/h   51 % 0.0 in /  0 mm
21:51 20.6 °F /  -6.3 °C 10.1 °F /  -12.2 °C 1017.8 in /  34462.7 hPa ESE 4.7 mph /  7.6 km/h 4.7 mph /  7.6 km/h 51 % 0.0 in /  0 mm
21:55 16.9 °F /  -8.4 °C 9.6 °F /  -12.4 °C 1018.8 in /  34496.6 hPa Calm     62 % 0.0 in /  0 mm
21:56 20.6 °F /  -6.3 °C 10.1 °F /  -12.2 °C 1017.8 in /  34462.7 hPa NE 2.3 mph /  3.7 km/h 2.3 mph /  3.7 km/h 51 % 0.0 in /  0 mm
22:01 20.5 °F /  -6.4 °C 10.0 °F /  -12.2 °C 1017.8 in /  34462.7 hPa SSW 1.9 mph /  3.1 km/h 1.9 mph /  3.1 km/h 51 % 0.0 in /  0 mm
22:05 16.5 °F /  -8.6 °C 9.2 °F /  -12.7 °C 1018.8 in /  34496.6 hPa Calm   3.2 mph /  5.1 km/h 62 % 0.0 in /  0 mm
22:06 20.4 °F /  -6.4 °C 9.9 °F /  -12.3 °C 1018.8 in /  34496.6 hPa Calm     51 % 0.0 in /  0 mm
22:11 20.3 °F /  -6.5 °C 9.8 °F /  -12.3 °C 1018.8 in /  34496.6 hPa SW 1.9 mph /  3.1 km/h 1.9 mph /  3.1 km/h 51 % 0.0 in /  0 mm
22:15 16.4 °F /  -8.7 °C 8.8 °F /  -12.9 °C 1018.8 in /  34496.6 hPa SW 1.6 mph /  2.6 km/h 3.2 mph /  5.1 km/h 61 % 0.0 in /  0 mm
22:16 20.2 °F /  -6.6 °C 10.0 °F /  -12.2 °C 1018.8 in /  34496.6 hPa SW 2.6 mph /  4.2 km/h 2.6 mph /  4.2 km/h 52 % 0.0 in /  0 mm
22:21 20.1 °F /  -6.6 °C 9.9 °F /  -12.3 °C 1018.8 in /  34496.6 hPa Calm     52 % 0.0 in /  0 mm
22:25 16.3 °F /  -8.7 °C 9.0 °F /  -12.8 °C 1017.8 in /  34462.7 hPa Calm     62 % 0.0 in /  0 mm
22:26 20.0 °F /  -6.7 °C 9.8 °F /  -12.3 °C 1018.8 in /  34496.6 hPa Calm     52 % 0.0 in /  0 mm
22:31 19.9 °F /  -6.7 °C 9.7 °F /  -12.4 °C 1018.8 in /  34496.6 hPa Calm     52 % 0.0 in /  0 mm
22:35 16.2 °F /  -8.8 °C 8.9 °F /  -12.8 °C 1017.8 in /  34462.7 hPa SW 3.2 mph /  5.1 km/h 3.2 mph /  5.1 km/h 62 % 0.0 in /  0 mm
22:36 19.9 °F /  -6.7 °C 9.7 °F /  -12.4 °C 1018.8 in /  34496.6 hPa Calm     52 % 0.0 in /  0 mm
22:41 19.9 °F /  -6.7 °C 10.1 °F /  -12.2 °C 1018.8 in /  34496.6 hPa NNE 1.9 mph /  3.1 km/h 1.9 mph /  3.1 km/h 53 % 0.0 in /  0 mm
22:45 16.2 °F /  -8.8 °C 8.9 °F /  -12.8 °C 1017.8 in /  34462.7 hPa SW 1.6 mph /  2.6 km/h 3.2 mph /  5.1 km/h 62 % 0.0 in /  0 mm
22:46 19.8 °F /  -6.8 °C 9.9 °F /  -12.3 °C 1018.8 in /  34496.6 hPa Calm     53 % 0.0 in /  0 mm
22:51 19.7 °F /  -6.8 °C 9.8 °F /  -12.3 °C 1019.9 in /  34533.8 hPa Calm     53 % 0.0 in /  0 mm
22:55 16.2 °F /  -8.8 °C 8.9 °F /  -12.8 °C 1017.8 in /  34462.7 hPa WSW 1.6 mph /  2.6 km/h 3.2 mph /  5.1 km/h 62 % 0.0 in /  0 mm
22:56 19.7 °F /  -6.8 °C 9.8 °F /  -12.3 °C 1019.9 in /  34533.8 hPa NW 1.9 mph /  3.1 km/h 1.9 mph /  3.1 km/h 53 % 0.0 in /  0 mm
23:01 19.6 °F /  -6.9 °C 10.1 °F /  -12.2 °C 1019.9 in /  34533.8 hPa NNW 1.9 mph /  3.1 km/h   54 % 0.0 in /  0 mm
23:06 19.5 °F /  -6.9 °C 9.9 °F /  -12.3 °C 1019.9 in /  34533.8 hPa Calm     54 % 0.0 in /  0 mm
23:11 19.4 °F /  -7 °C 10.1 °F /  -12.2 °C 1019.9 in /  34533.8 hPa NNW 1.9 mph /  3.1 km/h   55 % 0.0 in /  0 mm
23:15 16.2 °F /  -8.8 °C 9.2 °F /  -12.7 °C 1017.8 in /  34462.7 hPa Calm     63 % 0.0 in /  0 mm
23:16 19.4 °F /  -7 °C 10.1 °F /  -12.2 °C 1019.9 in /  34533.8 hPa Calm     55 % 0.0 in /  0 mm
23:21 19.3 °F /  -7.1 °C 10.1 °F /  -12.2 °C 1019.9 in /  34533.8 hPa NNE 3.2 mph /  5.1 km/h 3.2 mph /  5.1 km/h 55 % 0.0 in /  0 mm
23:25 16.2 °F /  -8.8 °C 9.2 °F /  -12.7 °C 1017.8 in /  34462.7 hPa Calm     63 % 0.0 in /  0 mm
23:26 19.3 °F /  -7.1 °C 10.1 °F /  -12.2 °C 1019.9 in /  34533.8 hPa NNE 1.9 mph /  3.1 km/h   55 % 0.0 in /  0 mm
23:31 19.2 °F /  -7.1 °C 9.9 °F /  -12.3 °C 1019.9 in /  34533.8 hPa Calm     55 % 0.0 in /  0 mm
23:35 16.2 °F /  -8.8 °C 9.2 °F /  -12.7 °C 1016.8 in /  34428.8 hPa Calm     63 % 0.0 in /  0 mm
23:36 19.2 °F /  -7.1 °C 9.9 °F /  -12.3 °C 1019.9 in /  34533.8 hPa West 1.9 mph /  3.1 km/h 1.9 mph /  3.1 km/h 55 % 0.0 in /  0 mm
23:41 19.1 °F /  -7.2 °C 9.8 °F /  -12.3 °C 1019.9 in /  34533.8 hPa Calm     55 % 0.0 in /  0 mm
23:45 16.4 °F /  -8.7 °C 9.3 °F /  -12.6 °C 1016.8 in /  34428.8 hPa SW 1.6 mph /  2.6 km/h 1.6 mph /  2.6 km/h 63 % 0.0 in /  0 mm
23:46 19.0 °F /  -7.2 °C 10.0 °F /  -12.2 °C 1019.9 in /  34533.8 hPa Calm     56 % 0.0 in /  0 mm
23:51 19.0 °F /  -7.2 °C 10.0 °F /  -12.2 °C 1019.9 in /  34533.8 hPa Calm     56 % 0.0 in /  0 mm
23:55 16.4 °F /  -8.7 °C 9.3 °F /  -12.6 °C 1017.8 in /  34462.7 hPa Calm     63 % 0.0 in /  0 mm
23:56 19.0 °F /  -7.2 °C 10.0 °F /  -12.2 °C 1019.9 in /  34533.8 hPa Calm     56 % 0.0 in /  0 mm
Meteo Sesrovires
Elogis d' Weather Underground - 3.75 mb

Guio original per  Jim McMurry - jmcmurry@mwt.net Adaptat per a la plantilla per  Wim van der Kuil - Leuven-Template.eu

Trobareu la nostra informacio del temps tambe a:

Weather Underground

AWEKAS